Time;durP1;ratioP1;P1;durP2;ratioP2;P2;SDS_P1;SDS_P2;PMS_P1;PMS_P2;Temp;Humidity;BMP_temperature;BMP_pressure;BME280_temperature;BME280_humidity;BME280_pressure;Samples;Min_cycle;Max_cycle;Signal;HPM_P1;HPM_P2
2022/07/01 00:02:13;;;;;;;14.07;12.70;;;15.30;99.90;;;;;;5068577;28;20487;-61
2022/07/01 00:04:39;;;;;;;14.68;13.07;;;15.30;99.90;;;;;;5070775;28;20519;-60
2022/07/01 00:07:05;;;;;;;17.02;12.93;;;15.20;99.90;;;;;;5070243;28;20404;-61
2022/07/01 00:09:31;;;;;;;12.63;11.30;;;15.20;99.90;;;;;;5069006;28;20031;-60
2022/07/01 00:11:56;;;;;;;18.38;15.82;;;15.20;99.90;;;;;;5068574;28;20559;-61
2022/07/01 00:14:22;;;;;;;15.80;13.73;;;15.10;99.90;;;;;;5070238;28;20024;-60
2022/07/01 00:16:48;;;;;;;18.42;14.68;;;15.10;99.90;;;;;;5069096;28;20021;-60
2022/07/01 00:19:14;;;;;;;20.00;17.70;;;15.10;99.90;;;;;;5068790;28;20078;-60
2022/07/01 00:21:40;;;;;;;21.10;17.75;;;15.10;99.90;;;;;;5068135;28;20028;-60
2022/07/01 00:24:06;;;;;;;20.40;17.67;;;15.00;99.90;;;;;;5074097;28;20029;-60
2022/07/01 00:26:32;;;;;;;20.95;16.90;;;15.00;99.90;;;;;;5073405;28;20027;-60
2022/07/01 00:28:57;;;;;;;22.98;18.70;;;14.90;99.90;;;;;;5072643;28;20028;-60
2022/07/01 00:31:23;;;;;;;23.40;19.35;;;14.90;99.90;;;;;;5070698;28;20080;-60
2022/07/01 00:33:48;;;;;;;23.65;19.50;;;14.90;99.90;;;;;;5071494;28;20443;-60
2022/07/01 00:36:14;;;;;;;28.92;21.63;;;14.90;99.90;;;;;;5073280;28;20033;-60
2022/07/01 00:38:39;;;;;;;26.63;20.17;;;14.90;99.90;;;;;;5073009;28;20812;-60
2022/07/01 00:41:05;;;;;;;26.98;20.98;;;14.90;99.90;;;;;;5070795;28;20017;-60
2022/07/01 00:43:35;;;;;;;25.70;21.23;;;14.90;99.90;;;;;;5073654;28;20408;-60
2022/07/01 00:46:01;;;;;;;26.13;20.02;;;14.90;99.90;;;;;;5071031;28;20468;-61
2022/07/01 00:48:26;;;;;;;23.33;20.00;;;14.90;99.90;;;;;;5073653;28;20031;-60
2022/07/01 00:50:52;;;;;;;26.67;21.75;;;14.90;99.90;;;;;;5070523;28;20047;-60
2022/07/01 00:53:18;;;;;;;32.80;25.98;;;14.90;99.90;;;;;;5072134;28;20035;-60
2022/07/01 00:55:43;;;;;;;37.58;30.85;;;14.90;99.90;;;;;;5072359;28;20017;-60
2022/07/01 00:58:09;;;;;;;35.15;28.23;;;14.90;99.90;;;;;;5072296;28;20060;-60
2022/07/01 01:00:38;;;;;;;34.63;28.17;;;14.90;99.90;;;;;;5069736;28;20029;-60
2022/07/01 01:03:06;;;;;;;33.72;26.95;;;14.90;99.90;;;;;;5070817;28;20483;-60
2022/07/01 01:05:32;;;;;;;36.83;29.60;;;14.90;99.90;;;;;;5072894;28;20036;-60
2022/07/01 01:07:57;;;;;;;31.83;26.98;;;14.90;99.90;;;;;;5071762;28;20021;-60
2022/07/01 01:10:25;;;;;;;31.95;26.27;;;14.90;99.90;;;;;;5071042;28;20029;-60
2022/07/01 01:12:51;;;;;;;29.77;25.45;;;14.90;99.90;;;;;;5070909;28;20054;-60
2022/07/01 01:15:20;;;;;;;29.80;24.15;;;14.90;99.90;;;;;;5069922;28;20034;-61
2022/07/01 01:17:46;;;;;;;30.13;26.27;;;14.90;99.90;;;;;;5072207;28;20035;-60
2022/07/01 01:20:16;;;;;;;29.90;24.42;;;14.90;99.90;;;;;;5070052;28;20016;-60
2022/07/01 01:22:43;;;;;;;;;;;14.90;99.90;;;;;;5070813;28;20020;-60
2022/07/01 01:25:08;;;;;;;31.55;25.70;;;14.90;99.90;;;;;;5072653;28;19904;-60
2022/07/01 01:27:34;;;;;;;32.80;25.90;;;14.80;99.90;;;;;;5072834;28;20028;-60
2022/07/01 01:29:59;;;;;;;28.02;24.27;;;14.80;99.90;;;;;;5069595;28;20384;-60
2022/07/01 01:32:25;;;;;;;30.85;25.85;;;14.80;99.90;;;;;;5070621;28;20032;-60
2022/07/01 01:34:50;;;;;;;30.65;24.63;;;14.90;99.90;;;;;;5071870;28;20159;-60
2022/07/01 01:37:16;;;;;;;36.22;30.75;;;14.80;99.90;;;;;;5071923;28;20396;-60
2022/07/01 01:39:42;;;;;;;31.80;28.02;;;14.80;99.90;;;;;;5064453;28;20027;-60
2022/07/01 01:42:08;;;;;;;29.05;24.50;;;14.70;99.90;;;;;;5080153;28;20025;-60
2022/07/01 01:44:33;;;;;;;27.80;23.90;;;14.70;99.90;;;;;;5079936;28;20020;-60
2022/07/01 01:46:59;;;;;;;27.75;24.25;;;14.70;99.90;;;;;;5070583;28;20472;-60
2022/07/01 01:49:25;;;;;;;34.58;28.42;;;14.70;99.90;;;;;;5069917;28;20017;-60
2022/07/01 01:51:50;;;;;;;30.35;25.83;;;14.70;99.90;;;;;;5070277;28;20029;-60
2022/07/01 01:54:16;;;;;;;35.47;28.00;;;14.60;99.90;;;;;;5069422;28;20032;-60
2022/07/01 01:56:41;;;;;;;33.40;28.65;;;14.60;99.90;;;;;;5071352;28;20032;-60
2022/07/01 01:59:07;;;;;;;39.58;31.45;;;14.60;99.90;;;;;;5070528;28;20050;-60
2022/07/01 02:01:32;;;;;;;34.30;28.25;;;14.50;99.90;;;;;;5070649;28;20029;-60
2022/07/01 02:03:58;;;;;;;33.20;27.65;;;14.50;99.90;;;;;;5070532;28;20099;-60
2022/07/01 02:06:24;;;;;;;33.42;24.75;;;14.50;99.90;;;;;;5070306;28;20100;-60
2022/07/01 02:08:50;;;;;;;27.38;22.60;;;14.50;99.90;;;;;;5071871;28;20107;-60
2022/07/01 02:11:15;;;;;;;31.17;25.80;;;14.60;99.90;;;;;;5069924;28;20362;-60
2022/07/01 02:13:41;;;;;;;31.75;24.80;;;14.60;99.90;;;;;;5069431;28;20051;-60
2022/07/01 02:16:06;;;;;;;29.92;24.05;;;14.60;99.90;;;;;;5069819;28;20020;-60
2022/07/01 02:18:32;;;;;;;32.35;26.58;;;14.60;99.90;;;;;;5071156;28;20082;-60
2022/07/01 02:20:58;;;;;;;30.27;23.98;;;14.60;99.90;;;;;;5070641;28;20063;-61
2022/07/01 02:23:24;;;;;;;29.90;24.85;;;14.60;99.90;;;;;;5068336;28;20027;-60
2022/07/01 02:25:50;;;;;;;29.35;22.92;;;14.50;99.90;;;;;;5071496;28;20128;-60
2022/07/01 02:28:16;;;;;;;34.80;27.15;;;14.60;99.90;;;;;;5053028;28;20581;-60
2022/07/01 02:30:42;;;;;;;38.72;30.13;;;14.60;99.90;;;;;;5069906;28;20115;-60
2022/07/01 02:33:09;;;;;;;33.28;26.17;;;14.50;99.90;;;;;;5071373;28;20026;-60
2022/07/01 02:35:36;;;;;;;32.97;26.45;;;14.50;99.90;;;;;;5071541;28;20028;-60
2022/07/01 02:38:02;;;;;;;34.85;27.70;;;14.50;99.90;;;;;;5068757;28;20017;-60
2022/07/01 02:40:28;;;;;;;30.35;25.02;;;14.40;99.90;;;;;;5074354;28;20138;-60
2022/07/01 02:42:53;;;;;;;31.38;26.10;;;14.50;99.90;;;;;;5083433;28;20109;-60
2022/07/01 02:45:19;;;;;;;32.92;26.35;;;14.50;99.90;;;;;;5074349;28;20438;-60
2022/07/01 02:47:44;;;;;;;33.65;25.67;;;14.50;99.90;;;;;;5069536;28;20116;-60
2022/07/01 02:50:11;;;;;;;32.13;25.98;;;14.50;99.90;;;;;;5069396;28;20097;-60
2022/07/01 02:52:39;;;;;;;38.10;29.55;;;14.50;99.90;;;;;;5068434;28;20028;-60
2022/07/01 02:55:06;;;;;;;38.58;29.45;;;14.40;99.90;;;;;;5070673;28;20028;-60
2022/07/01 02:57:31;;;;;;;34.58;27.40;;;14.40;99.90;;;;;;5068422;28;20009;-60
2022/07/01 02:59:57;;;;;;;31.98;24.80;;;14.40;99.90;;;;;;5069905;28;20527;-60
2022/07/01 03:02:23;;;;;;;31.48;25.25;;;14.40;99.90;;;;;;5080206;28;20143;-60
2022/07/01 03:04:50;;;;;;;29.23;23.95;;;14.40;99.90;;;;;;5069829;28;20484;-60
2022/07/01 03:07:16;;;;;;;32.22;25.85;;;14.40;99.90;;;;;;5068496;28;20025;-60
2022/07/01 03:09:43;;;;;;;37.05;27.58;;;14.40;99.90;;;;;;5070346;28;20150;-60
2022/07/01 03:12:24;;;;;;;39.15;28.63;;;14.30;99.90;;;;;;5069526;28;20492;-60
2022/07/01 03:14:51;;;;;;;36.90;27.65;;;14.30;99.90;;;;;;5067057;28;20111;-60
2022/07/01 03:17:18;;;;;;;32.53;25.73;;;14.30;99.90;;;;;;5070578;28;20090;-60
2022/07/01 03:19:43;;;;;;;37.63;27.63;;;14.30;99.90;;;;;;5069725;28;20021;-60
2022/07/01 03:22:09;;;;;;;32.60;26.33;;;14.30;99.90;;;;;;5069292;28;20020;-60
2022/07/01 03:24:35;;;;;;;37.95;28.05;;;14.30;99.90;;;;;;5069152;28;20071;-60
2022/07/01 03:27:00;;;;;;;38.58;28.67;;;14.30;99.90;;;;;;5070412;28;20121;-60
2022/07/01 03:29:26;;;;;;;47.35;33.13;;;14.20;99.90;;;;;;5068186;28;20055;-60
2022/07/01 03:31:51;;;;;;;40.00;29.30;;;14.20;99.90;;;;;;5068952;28;20032;-60
2022/07/01 03:34:17;;;;;;;43.65;32.42;;;14.10;99.90;;;;;;5066427;28;20476;-60
2022/07/01 03:36:42;;;;;;;41.80;30.52;;;14.10;99.90;;;;;;5068042;28;20473;-60
2022/07/01 03:39:08;;;;;;;45.45;32.15;;;14.10;99.90;;;;;;5069586;28;20074;-60
2022/07/01 03:41:34;;;;;;;41.83;30.33;;;14.00;99.90;;;;;;5069962;28;20021;-60
2022/07/01 03:43:59;;;;;;;42.30;30.52;;;14.00;99.90;;;;;;5066242;28;20025;-60
2022/07/01 03:46:25;;;;;;;50.17;33.25;;;14.10;99.90;;;;;;5070336;28;20472;-60
2022/07/01 03:48:50;;;;;;;48.80;32.85;;;14.10;99.90;;;;;;5067845;28;20021;-60
2022/07/01 03:51:16;;;;;;;47.92;32.55;;;14.10;99.90;;;;;;5068663;28;20020;-60
2022/07/01 03:56:25;;;;;;;47.78;32.97;;;14.10;99.90;;;;;;5072351;28;20024;-60
2022/07/01 03:58:51;;;;;;;47.28;32.05;;;14.10;99.90;;;;;;5071392;28;20041;-60
2022/07/01 04:01:16;;;;;;;47.15;33.50;;;14.10;99.90;;;;;;5071786;28;20020;-60
2022/07/01 04:03:42;;;;;;;42.15;30.88;;;14.10;99.90;;;;;;5073873;28;20028;-60
2022/07/01 04:06:07;;;;;;;43.50;29.67;;;14.10;99.90;;;;;;5073060;28;20020;-60
2022/07/01 04:08:33;;;;;;;42.35;29.55;;;14.10;99.90;;;;;;5071143;28;20028;-60
2022/07/01 04:10:59;;;;;;;42.80;30.52;;;14.10;99.90;;;;;;5071959;28;20056;-60
2022/07/01 04:13:24;;;;;;;41.00;28.52;;;14.10;99.90;;;;;;5073471;28;20056;-60
2022/07/01 04:15:55;;;;;;;41.58;29.80;;;14.10;99.90;;;;;;5073299;28;20044;-60
2022/07/01 04:18:20;;;;;;;38.25;27.98;;;14.10;99.90;;;;;;5071941;28;20042;-60
2022/07/01 04:22:32;;;;;;;42.92;30.33;;;14.10;99.90;;;;;;5071911;28;20036;-60
2022/07/01 04:23:33;;;;;;;37.80;27.95;;;14.10;99.90;;;;;;5071888;28;20031;-60
2022/07/01 04:25:58;;;;;;;42.50;30.48;;;14.00;99.90;;;;;;5071329;28;20024;-60
2022/07/01 04:28:24;;;;;;;42.72;29.85;;;14.00;99.90;;;;;;5072044;28;20023;-60
2022/07/01 04:30:49;;;;;;;41.80;29.73;;;14.10;99.90;;;;;;5070952;28;20033;-60
2022/07/01 04:33:15;;;;;;;39.40;28.27;;;14.10;99.90;;;;;;5072800;28;20089;-60
2022/07/01 04:35:41;;;;;;;37.80;28.27;;;14.00;99.90;;;;;;5070717;28;20487;-60
2022/07/01 04:38:06;;;;;;;35.78;26.63;;;14.00;99.90;;;;;;5071730;28;20092;-60
2022/07/01 04:40:32;;;;;;;37.42;25.67;;;14.00;99.90;;;;;;5073341;28;20091;-60
2022/07/01 04:42:58;;;;;;;40.78;29.10;;;14.00;99.90;;;;;;5071988;28;20068;-60
2022/07/01 04:45:23;;;;;;;46.13;31.25;;;14.00;99.90;;;;;;5079928;28;20112;-60
2022/07/01 04:47:48;;;;;;;44.25;29.63;;;14.00;99.90;;;;;;5068894;28;20095;-60
2022/07/01 04:50:14;;;;;;;44.20;29.48;;;14.00;99.90;;;;;;5070704;28;20064;-60
2022/07/01 04:52:40;;;;;;;46.35;31.80;;;14.00;99.90;;;;;;5066638;28;20063;-60
2022/07/01 04:55:06;;;;;;;43.08;30.42;;;14.00;99.90;;;;;;5069576;28;20048;-60
2022/07/01 04:57:31;;;;;;;42.03;29.20;;;14.00;99.90;;;;;;5069303;28;20013;-60
2022/07/01 04:59:57;;;;;;;41.75;29.83;;;14.00;99.90;;;;;;5069694;28;20036;-60
2022/07/01 05:02:22;;;;;;;39.05;28.10;;;14.00;99.90;;;;;;5065907;28;20016;-60
2022/07/01 05:04:48;;;;;;;43.92;30.73;;;14.00;99.90;;;;;;5069600;28;20038;-60
2022/07/01 05:07:28;;;;;;;38.83;28.27;;;14.00;99.90;;;;;;5067578;28;20017;-60
2022/07/01 05:09:55;;;;;;;37.13;26.90;;;14.00;99.90;;;;;;5071396;28;20029;-60
2022/07/01 05:12:22;;;;;;;30.08;22.92;;;14.10;99.90;;;;;;5070490;28;20032;-60
2022/07/01 05:14:49;;;;;;;36.88;25.35;;;14.20;99.90;;;;;;5066729;28;20025;-61
2022/07/01 05:17:14;;;;;;;34.50;25.20;;;14.20;99.90;;;;;;5068087;28;20376;-60
2022/07/01 05:22:24;;;;;;;35.95;24.33;;;14.30;99.90;;;;;;5068986;28;20546;-60
2022/07/01 05:24:49;;;;;;;36.17;27.98;;;14.40;99.90;;;;;;5068990;28;20071;-60
2022/07/01 05:27:15;;;;;;;31.85;24.60;;;14.40;99.90;;;;;;5073172;28;20055;-60
2022/07/01 05:29:53;;;;;;;30.42;22.60;;;14.40;99.90;;;;;;5064211;28;20095;-60
2022/07/01 05:33:20;;;;;;;;;;;;;;;;;;;;;
2022/07/01 05:35:41;;;;;;;24.83;19.20;;;14.60;99.90;;;;;;5067361;28;20093;-60
2022/07/01 05:38:06;;;;;;;29.00;20.65;;;14.50;99.90;;;;;;5061673;28;20103;-60
2022/07/01 05:40:32;;;;;;;32.72;23.58;;;14.60;99.90;;;;;;5076101;28;20498;-60
2022/07/01 05:42:57;;;;;;;33.67;25.23;;;14.60;99.90;;;;;;5058632;28;20029;-60
2022/07/01 05:45:23;;;;;;;35.13;23.33;;;14.60;99.90;;;;;;5059566;28;20175;-60
2022/07/01 05:47:49;;;;;;;35.30;24.55;;;14.60;99.90;;;;;;5063280;28;20392;-60
2022/07/01 05:50:23;;;;;;;31.25;21.65;;;14.60;99.90;;;;;;5071840;28;20043;-60
2022/07/01 05:52:49;;;;;;;37.80;25.38;;;14.70;99.90;;;;;;5067037;28;20017;-60
2022/07/01 05:55:15;;;;;;;33.72;23.08;;;14.70;99.90;;;;;;5060371;28;20384;-60
2022/07/01 05:57:40;;;;;;;29.77;20.50;;;14.70;99.90;;;;;;5055564;28;20536;-60
2022/07/01 06:00:06;;;;;;;30.50;19.85;;;14.80;99.90;;;;;;5071009;28;20032;-60
2022/07/01 06:02:32;;;;;;;28.05;20.15;;;14.80;99.90;;;;;;5066698;28;20377;-61
2022/07/01 06:04:59;;;;;;;34.30;25.23;;;14.80;99.90;;;;;;5057860;28;20485;-60
2022/07/01 06:07:35;;;;;;;32.03;22.52;;;14.80;99.90;;;;;;5065371;28;20021;-60
2022/07/01 06:10:33;;;;;;;30.67;21.88;;;14.80;99.90;;;;;;5073100;28;20024;-60
2022/07/01 06:12:58;;;;;;;27.27;21.20;;;14.80;99.90;;;;;;5070360;28;20020;-60
2022/07/01 06:15:24;;;;;;;25.85;20.13;;;14.80;99.90;;;;;;5054487;28;20461;-60
2022/07/01 06:17:50;;;;;;;26.30;21.17;;;14.80;99.90;;;;;;5055213;28;20029;-60
2022/07/01 06:20:16;;;;;;;30.88;21.52;;;14.80;99.90;;;;;;5052864;28;20013;-61
2022/07/01 06:22:41;;;;;;;30.20;21.17;;;14.80;99.90;;;;;;5055878;28;20025;-60
2022/07/01 06:25:07;;;;;;;27.65;19.67;;;14.90;99.90;;;;;;5054445;28;20025;-60
2022/07/01 06:27:41;;;;;;;34.83;24.83;;;14.90;99.90;;;;;;5079206;28;20078;-60
2022/07/01 06:30:08;;;;;;;31.70;23.63;;;15.00;99.90;;;;;;5061227;28;20024;-60
2022/07/01 06:32:33;;;;;;;25.45;20.50;;;14.90;99.90;;;;;;5060246;28;20112;-60
2022/07/01 06:34:59;;;;;;;25.83;19.55;;;14.90;99.90;;;;;;5063775;28;20121;-60
2022/07/01 06:37:24;;;;;;;30.50;23.45;;;15.00;99.90;;;;;;5061055;28;20090;-60
2022/07/01 06:39:50;;;;;;;33.45;23.90;;;15.00;99.90;;;;;;5058654;28;20055;-60
2022/07/01 06:42:16;;;;;;;30.50;21.80;;;15.10;99.90;;;;;;5061742;28;20025;-60
2022/07/01 06:44:41;;;;;;;28.95;21.08;;;15.10;99.90;;;;;;5053747;28;20031;-60
2022/07/01 06:47:07;;;;;;;33.97;22.98;;;15.20;99.90;;;;;;5063236;28;20090;-60
2022/07/01 06:49:33;;;;;;;29.48;22.30;;;15.20;99.90;;;;;;5064341;28;20100;-60
2022/07/01 06:51:58;;;;;;;31.30;23.55;;;15.20;99.90;;;;;;5059169;28;20177;-60
2022/07/01 06:54:24;;;;;;;30.70;21.52;;;15.30;99.90;;;;;;5065826;28;20469;-60
2022/07/01 06:56:49;;;;;;;27.10;19.40;;;15.40;99.90;;;;;;5056312;28;20029;-60
2022/07/01 06:59:15;;;;;;;22.70;19.05;;;15.50;99.90;;;;;;5054438;28;20492;-60
2022/07/01 07:01:41;;;;;;;24.23;18.50;;;15.60;99.90;;;;;;5056485;28;20025;-61
2022/07/01 07:04:07;;;;;;;28.77;20.23;;;15.60;99.90;;;;;;5065448;28;20020;-60
2022/07/01 07:06:33;;;;;;;26.98;19.88;;;15.60;99.90;;;;;;5058333;28;20136;-61
2022/07/01 07:08:58;;;;;;;23.98;18.13;;;15.60;99.90;;;;;;5070228;28;20032;-61
2022/07/01 07:11:56;;;;;;;26.75;19.73;;;15.60;99.90;;;;;;5056288;28;20032;-61
2022/07/01 07:14:21;;;;;;;24.38;18.75;;;15.70;99.90;;;;;;5070644;28;20056;-60
2022/07/01 07:16:47;;;;;;;21.65;15.55;;;15.70;99.90;;;;;;5056485;28;20478;-60
2022/07/01 07:19:12;;;;;;;24.65;18.45;;;15.80;99.90;;;;;;5066228;28;20024;-60
2022/07/01 07:21:38;;;;;;;22.15;16.65;;;15.80;99.90;;;;;;5055531;28;20456;-61
2022/07/01 07:24:04;;;;;;;23.17;17.23;;;15.90;99.90;;;;;;5076677;28;20028;-60
2022/07/01 07:26:29;;;;;;;21.73;17.33;;;16.00;99.90;;;;;;5049350;28;20671;-61
2022/07/01 07:28:55;;;;;;;22.92;17.13;;;16.10;99.90;;;;;;5051574;28;20037;-61
2022/07/01 07:31:20;;;;;;;17.48;14.02;;;16.20;99.90;;;;;;5065689;28;20021;-61
2022/07/01 07:33:46;;;;;;;25.00;16.90;;;16.30;99.90;;;;;;5067438;28;20055;-60
2022/07/01 07:36:33;;;;;;;18.48;13.27;;;16.30;99.90;;;;;;5069049;28;20012;-60
2022/07/01 07:38:59;;;;;;;17.92;13.68;;;16.40;99.90;;;;;;5067195;28;20024;-61
2022/07/01 07:41:24;;;;;;;19.95;14.30;;;16.40;99.90;;;;;;5083007;28;20021;-61
2022/07/01 07:44:15;;;;;;;18.63;15.05;;;16.50;99.90;;;;;;5068097;28;20524;-60
2022/07/01 07:46:41;;;;;;;18.40;12.68;;;16.50;99.80;;;;;;5065107;28;20559;-61
2022/07/01 07:49:07;;;;;;;15.77;11.82;;;16.50;99.80;;;;;;5067313;28;20108;-60
2022/07/01 07:51:32;;;;;;;14.18;9.98;;;16.50;99.70;;;;;;5062346;28;20032;-61
2022/07/01 07:53:58;;;;;;;15.15;8.93;;;16.60;99.40;;;;;;5054691;28;20032;-61
2022/07/01 07:56:23;;;;;;;14.95;10.32;;;16.70;99.10;;;;;;5067846;28;20434;-60
2022/07/01 07:58:49;;;;;;;12.52;9.75;;;16.80;99.00;;;;;;5068049;28;20049;-60
2022/07/01 08:01:15;;;;;;;14.25;8.05;;;16.80;98.90;;;;;;5052575;28;20036;-61
2022/07/01 08:03:40;;;;;;;12.90;9.43;;;16.90;98.50;;;;;;5055507;28;20545;-61
2022/07/01 08:06:19;;;;;;;12.57;8.57;;;16.90;97.60;;;;;;5054858;28;20380;-60
2022/07/01 08:08:45;;;;;;;14.75;9.10;;;16.90;97.90;;;;;;5067025;28;20020;-61
2022/07/01 08:11:11;;;;;;;12.00;7.05;;;16.90;97.70;;;;;;5067686;28;20021;-61
2022/07/01 08:13:36;;;;;;;9.25;4.82;;;17.00;97.50;;;;;;5068521;28;20032;-61
2022/07/01 08:16:02;;;;;;;7.65;3.80;;;17.10;97.30;;;;;;5065132;28;20434;-61
2022/07/01 08:18:28;;;;;;;7.63;4.47;;;17.20;96.80;;;;;;5063136;28;20025;-60
2022/07/01 08:20:53;;;;;;;8.27;3.63;;;17.30;96.30;;;;;;5066057;28;20532;-61
2022/07/01 08:23:20;;;;;;;5.82;2.70;;;17.30;95.90;;;;;;5056356;28;20075;-61
2022/07/01 08:25:47;;;;;;;6.80;2.83;;;17.40;95.70;;;;;;5065705;28;20033;-60
2022/07/01 08:28:13;;;;;;;7.70;3.10;;;17.40;94.50;;;;;;5056378;28;20514;-61
2022/07/01 08:30:38;;;;;;;7.35;4.00;;;17.40;94.20;;;;;;5059214;28;20068;-60
2022/07/01 08:33:04;;;;;;;6.50;3.25;;;17.40;94.00;;;;;;5051267;28;20609;-60
2022/07/01 08:35:30;;;;;;;4.88;2.78;;;17.40;94.40;;;;;;5062542;28;20017;-61
2022/07/01 08:37:56;;;;;;;5.18;2.67;;;17.50;93.80;;;;;;5056292;28;20017;-60
2022/07/01 08:40:47;;;;;;;8.27;3.10;;;17.50;93.60;;;;;;5059508;28;20481;-60
2022/07/01 08:43:13;;;;;;;7.15;3.40;;;17.60;93.80;;;;;;5057331;28;20036;-61
2022/07/01 08:45:39;;;;;;;7.53;3.75;;;17.60;93.30;;;;;;5068678;28;20035;-60
2022/07/01 08:48:05;;;;;;;7.03;3.17;;;17.70;93.30;;;;;;5058162;28;20408;-61
2022/07/01 08:50:59;;;;;;;;;;;;;;;;;;;;;
2022/07/01 08:53:25;;;;;;;4.55;2.45;;;17.90;93.00;;;;;;5065158;28;20520;-61
2022/07/01 08:58:36;;;;;;;5.93;2.22;;;18.00;92.00;;;;;;5061427;28;20056;-61
2022/07/01 09:01:17;;;;;;;5.93;1.70;;;18.00;91.70;;;;;;5068760;28;20015;-61
2022/07/01 09:03:44;;;;;;;5.22;1.52;;;18.10;91.20;;;;;;5064663;28;20029;-61
2022/07/01 09:06:41;;;;;;;6.45;2.35;;;18.00;90.50;;;;;;5068170;28;20037;-61
2022/07/01 09:09:14;;;;;;;3.65;1.30;;;18.00;90.30;;;;;;5069060;28;20124;-61
2022/07/01 09:11:53;;;;;;;2.58;1.48;;;18.10;90.60;;;;;;5065490;28;20471;-60
2022/07/01 09:14:23;;;;;;;2.95;1.50;;;18.30;90.40;;;;;;5063810;28;20547;-61
2022/07/01 09:16:51;;;;;;;2.45;1.02;;;18.30;90.70;;;;;;5062001;28;20442;-60
2022/07/01 09:19:36;;;;;;;3.72;1.30;;;18.40;90.50;;;;;;5069011;28;20021;-60
2022/07/01 09:22:04;;;;;;;3.30;1.08;;;18.50;89.40;;;;;;5071603;28;20168;-61
2022/07/01 09:24:34;;;;;;;2.53;0.90;;;18.50;86.40;;;;;;5052481;28;20025;-61
2022/07/01 09:27:10;;;;;;;3.97;1.27;;;18.60;85.90;;;;;;5073355;28;20027;-61
2022/07/01 09:29:40;;;;;;;4.25;1.27;;;18.70;85.40;;;;;;5071275;28;20086;-61
2022/07/01 09:32:09;;;;;;;4.97;1.50;;;18.60;85.40;;;;;;5066949;28;20032;-61
2022/07/01 09:34:49;;;;;;;5.15;1.30;;;18.70;86.10;;;;;;5070511;28;20484;-61
2022/07/01 09:37:16;;;;;;;1.77;0.95;;;18.90;84.50;;;;;;5064311;28;20032;-61
2022/07/01 09:39:47;;;;;;;3.00;0.80;;;18.90;82.70;;;;;;5081512;28;20071;-61
2022/07/01 09:42:14;;;;;;;3.83;1.10;;;18.90;80.90;;;;;;5056170;28;20020;-61
2022/07/01 09:44:58;;;;;;;3.03;0.65;;;18.90;82.20;;;;;;5064358;28;20079;-61
2022/07/01 09:47:40;;;;;;;1.80;0.60;;;19.10;82.40;;;;;;5084328;28;20024;-61
2022/07/01 09:50:07;;;;;;;1.85;0.65;;;19.10;82.40;;;;;;5070126;28;20032;-61
2022/07/01 09:52:33;;;;;;;2.83;0.88;;;19.30;83.10;;;;;;5069308;28;20480;-61
2022/07/01 09:54:58;;;;;;;4.15;0.70;;;19.40;80.80;;;;;;5059389;28;20412;-61
2022/07/01 09:57:43;;;;;;;4.70;1.10;;;19.40;80.50;;;;;;5063574;28;20017;-61
2022/07/01 10:00:09;;;;;;;2.95;0.80;;;19.50;79.50;;;;;;5061712;28;20039;-61
2022/07/01 10:02:36;;;;;;;2.60;0.70;;;19.40;77.90;;;;;;5063557;28;20104;-61
2022/07/01 10:05:09;;;;;;;1.75;0.60;;;19.40;78.30;;;;;;5062786;28;20379;-61
2022/07/01 10:07:37;;;;;;;2.20;0.70;;;19.50;78.30;;;;;;5057118;28;20024;-62
2022/07/01 10:10:41;;;;;;;3.17;0.63;;;19.50;77.40;;;;;;5054906;28;20531;-61
2022/07/01 10:13:14;;;;;;;1.95;0.85;;;19.60;77.40;;;;;;5065904;28;20024;-61
2022/07/01 10:16:01;;;;;;;1.42;0.60;;;19.50;76.50;;;;;;5052236;28;20544;-61
2022/07/01 10:18:27;;;;;;;2.55;0.60;;;19.60;76.00;;;;;;5065290;28;20032;-61
2022/07/01 10:20:54;;;;;;;2.80;0.60;;;19.50;74.80;;;;;;5059441;28;20476;-61
2022/07/01 10:23:22;;;;;;;1.98;0.60;;;19.60;75.50;;;;;;5057928;28;20029;-61
2022/07/01 10:25:52;;;;;;;2.40;0.77;;;19.70;75.20;;;;;;5059879;28;20387;-61
2022/07/01 10:28:22;;;;;;;2.33;0.60;;;19.80;75.70;;;;;;5089131;28;20082;-61
2022/07/01 10:30:57;;;;;;;1.45;0.52;;;19.70;73.80;;;;;;5069445;28;20021;-61
2022/07/01 10:33:33;;;;;;;3.20;0.50;;;19.80;73.80;;;;;;5055440;28;20025;-61
2022/07/01 10:36:06;;;;;;;2.58;0.70;;;19.90;74.50;;;;;;5056395;28;20013;-62
2022/07/01 10:38:32;;;;;;;3.60;0.80;;;20.00;74.10;;;;;;5057386;28;20025;-61
2022/07/01 10:41:09;;;;;;;4.75;0.80;;;20.00;72.80;;;;;;5058372;28;20028;-61
2022/07/01 10:43:36;;;;;;;3.35;0.95;;;19.90;72.20;;;;;;5074661;28;20155;-61
2022/07/01 10:46:14;;;;;;;5.18;0.80;;;20.00;73.60;;;;;;5055033;28;20112;-61
2022/07/01 10:48:48;;;;;;;1.88;0.50;;;19.90;72.20;;;;;;5060510;28;20472;-61
2022/07/01 10:51:18;;;;;;;2.33;0.57;;;20.10;71.30;;;;;;5064259;28;20024;-61
2022/07/01 10:53:47;;;;;;;2.58;0.60;;;20.20;70.80;;;;;;5053966;28;20171;-61
2022/07/01 10:56:17;;;;;;;1.98;0.60;;;20.30;70.00;;;;;;5055776;28;20108;-61
2022/07/01 10:58:43;;;;;;;1.65;0.50;;;20.30;68.70;;;;;;5057485;28;20072;-61
2022/07/01 11:01:08;;;;;;;1.90;0.50;;;20.30;69.50;;;;;;5059096;28;20052;-61
2022/07/01 11:03:36;;;;;;;1.95;0.60;;;20.30;68.20;;;;;;5056051;28;20025;-61
2022/07/01 11:06:02;;;;;;;1.55;0.30;;;20.30;68.10;;;;;;5063996;28;20392;-61
2022/07/01 11:08:28;;;;;;;5.28;0.50;;;20.30;69.10;;;;;;5062765;28;20031;-61
2022/07/01 11:11:02;;;;;;;2.42;0.70;;;20.50;68.90;;;;;;5068058;28;20020;-61
2022/07/01 11:13:27;;;;;;;1.15;0.40;;;20.50;68.80;;;;;;5060294;28;20025;-61
2022/07/01 11:15:53;;;;;;;1.25;0.43;;;20.60;69.40;;;;;;5057352;28;20019;-61
2022/07/01 11:18:19;;;;;;;4.32;0.60;;;20.80;69.70;;;;;;5055281;28;20151;-61
2022/07/01 11:20:45;;;;;;;2.00;0.45;;;20.80;69.40;;;;;;5056259;28;20029;-61
2022/07/01 11:23:11;;;;;;;1.38;0.47;;;20.90;69.20;;;;;;5058619;28;20028;-61
2022/07/01 11:25:41;;;;;;;1.27;0.40;;;21.00;69.40;;;;;;5052494;28;20017;-61
2022/07/01 11:28:06;;;;;;;3.17;0.70;;;21.10;69.70;;;;;;5061674;28;20033;-62
2022/07/01 11:30:32;;;;;;;2.92;0.60;;;21.10;67.70;;;;;;5058874;28;20496;-61
2022/07/01 11:32:58;;;;;;;2.63;0.60;;;21.10;68.60;;;;;;5065647;28;20020;-61
2022/07/01 11:41:06;;;;;;;2.45;0.65;;;21.30;65.00;;;;;;5060355;28;19915;-61
2022/07/01 11:44:08;;;;;;;;;;;;;;;;;;;;;
2022/07/01 11:46:34;;;;;;;3.85;0.93;;;21.60;65.60;;;;;;5064607;28;20036;-61
2022/07/01 11:48:59;;;;;;;2.45;0.60;;;21.60;65.90;;;;;;5062204;28;20111;-61
2022/07/01 11:51:29;;;;;;;1.25;0.43;;;21.60;65.60;;;;;;5060979;28;20055;-61
2022/07/01 11:53:55;;;;;;;1.60;0.50;;;21.80;64.40;;;;;;5063626;28;20032;-61
2022/07/01 11:56:32;;;;;;;1.73;0.50;;;21.90;63.30;;;;;;5059612;28;20025;-61
2022/07/01 11:58:58;;;;;;;3.00;0.45;;;22.20;64.10;;;;;;5056154;28;20044;-62
2022/07/01 12:01:32;;;;;;;2.75;0.60;;;22.30;63.70;;;;;;5070447;28;20040;-62
2022/07/01 12:04:02;;;;;;;2.38;0.60;;;22.20;62.80;;;;;;5067497;28;20526;-61
2022/07/01 12:06:28;;;;;;;2.40;0.50;;;22.00;64.00;;;;;;5069920;28;20059;-61
2022/07/01 12:08:56;;;;;;;1.70;0.95;;;22.00;64.80;;;;;;5063869;28;20024;-62
2022/07/01 12:11:23;;;;;;;2.85;0.60;;;22.10;65.40;;;;;;5062366;28;20032;-62
2022/07/01 12:13:49;;;;;;;2.28;0.50;;;22.20;65.30;;;;;;5057079;28;20082;-62
2022/07/01 12:16:15;;;;;;;2.83;0.68;;;22.30;65.30;;;;;;5056242;28;20052;-61
2022/07/01 12:18:55;;;;;;;2.35;0.40;;;22.30;65.20;;;;;;5060145;28;20426;-61
2022/07/01 12:21:22;;;;;;;2.08;0.50;;;22.40;64.60;;;;;;5056849;28;20056;-61
2022/07/01 12:24:07;;;;;;;3.60;0.80;;;22.40;64.00;;;;;;5057442;28;20025;-61
2022/07/01 12:26:34;;;;;;;1.73;0.50;;;22.40;64.30;;;;;;5057253;28;20036;-61
2022/07/01 12:28:59;;;;;;;0.82;0.40;;;22.40;64.80;;;;;;5056054;28;20029;-61
2022/07/01 12:31:25;;;;;;;1.45;0.70;;;22.40;65.00;;;;;;5056948;28;20024;-62
2022/07/01 12:33:52;;;;;;;2.47;0.55;;;22.40;65.20;;;;;;5058746;28;20481;-61
2022/07/01 12:36:18;;;;;;;2.08;0.60;;;22.50;64.80;;;;;;5056852;28;20388;-62
2022/07/01 12:38:44;;;;;;;1.73;0.50;;;22.40;64.40;;;;;;5059264;28;20048;-61
2022/07/01 12:41:29;;;;;;;2.53;0.60;;;22.40;64.20;;;;;;5057509;28;20532;-62
2022/07/01 12:43:54;;;;;;;1.15;0.50;;;22.30;64.10;;;;;;5063165;28;20035;-61
2022/07/01 12:46:30;;;;;;;4.57;0.63;;;22.30;65.00;;;;;;5062896;28;20028;-62
2022/07/01 12:48:57;;;;;;;2.67;0.65;;;22.20;64.10;;;;;;5063482;28;20027;-61
2022/07/01 12:51:30;;;;;;;2.35;0.60;;;22.20;64.20;;;;;;5072599;28;20024;-61
2022/07/01 12:53:56;;;;;;;2.72;0.60;;;22.10;64.20;;;;;;5068893;28;20021;-62
2022/07/01 12:56:26;;;;;;;1.67;0.50;;;22.00;64.60;;;;;;5063133;28;20044;-62
2022/07/01 12:58:53;;;;;;;1.27;0.50;;;22.10;64.80;;;;;;5059854;28;20086;-61